sensor_id;sensor_type;location;lat;lon;timestamp;P1;durP1;ratioP1;P2;durP2;ratioP2
22632;SDS011;11483;55.828;37.488;2022-12-18T00:01:44;22.33;;;9.13;;
22632;SDS011;11483;55.828;37.488;2022-12-18T00:04:18;21.70;;;7.93;;
22632;SDS011;11483;55.828;37.488;2022-12-18T00:06:47;15.77;;;7.10;;
22632;SDS011;11483;55.828;37.488;2022-12-18T00:09:13;17.50;;;6.93;;
22632;SDS011;11483;55.828;37.488;2022-12-18T00:11:39;19.60;;;7.77;;
22632;SDS011;11483;55.828;37.488;2022-12-18T00:14:05;15.77;;;5.77;;
22632;SDS011;11483;55.828;37.488;2022-12-18T00:16:31;14.33;;;6.13;;
22632;SDS011;11483;55.828;37.488;2022-12-18T00:18:58;20.47;;;6.93;;
22632;SDS011;11483;55.828;37.488;2022-12-18T00:21:25;18.33;;;6.97;;
22632;SDS011;11483;55.828;37.488;2022-12-18T00:23:52;17.30;;;6.53;;
22632;SDS011;11483;55.828;37.488;2022-12-18T00:26:19;15.33;;;5.83;;
22632;SDS011;11483;55.828;37.488;2022-12-18T00:28:47;15.10;;;7.10;;
22632;SDS011;11483;55.828;37.488;2022-12-18T00:31:15;14.70;;;6.40;;
22632;SDS011;11483;55.828;37.488;2022-12-18T00:33:43;12.90;;;4.87;;
22632;SDS011;11483;55.828;37.488;2022-12-18T00:36:11;16.13;;;5.97;;
22632;SDS011;11483;55.828;37.488;2022-12-18T00:38:37;12.13;;;5.50;;
22632;SDS011;11483;55.828;37.488;2022-12-18T00:41:03;13.63;;;5.43;;
22632;SDS011;11483;55.828;37.488;2022-12-18T00:43:30;13.47;;;5.70;;
22632;SDS011;11483;55.828;37.488;2022-12-18T00:45:59;14.93;;;5.90;;
22632;SDS011;11483;55.828;37.488;2022-12-18T00:48:24;18.70;;;5.87;;
22632;SDS011;11483;55.828;37.488;2022-12-18T00:50:50;15.57;;;6.07;;
22632;SDS011;11483;55.828;37.488;2022-12-18T00:53:16;12.17;;;5.60;;
22632;SDS011;11483;55.828;37.488;2022-12-18T00:55:43;13.97;;;5.90;;
22632;SDS011;11483;55.828;37.488;2022-12-18T00:58:10;12.83;;;5.37;;
22632;SDS011;11483;55.828;37.488;2022-12-18T01:00:37;15.20;;;6.57;;
22632;SDS011;11483;55.828;37.488;2022-12-18T01:03:03;11.07;;;4.23;;
22632;SDS011;11483;55.828;37.488;2022-12-18T01:05:30;13.67;;;5.23;;
22632;SDS011;11483;55.828;37.488;2022-12-18T01:07:56;12.00;;;5.03;;
22632;SDS011;11483;55.828;37.488;2022-12-18T01:10:23;12.10;;;5.47;;
22632;SDS011;11483;55.828;37.488;2022-12-18T01:12:50;12.30;;;4.43;;
22632;SDS011;11483;55.828;37.488;2022-12-18T01:15:16;11.50;;;5.00;;
22632;SDS011;11483;55.828;37.488;2022-12-18T01:17:43;9.20;;;4.10;;
22632;SDS011;11483;55.828;37.488;2022-12-18T01:20:09;16.47;;;5.60;;
22632;SDS011;11483;55.828;37.488;2022-12-18T01:22:37;10.50;;;5.17;;
22632;SDS011;11483;55.828;37.488;2022-12-18T01:25:03;8.83;;;4.17;;
22632;SDS011;11483;55.828;37.488;2022-12-18T01:27:30;9.90;;;3.90;;
22632;SDS011;11483;55.828;37.488;2022-12-18T01:29:58;11.67;;;4.67;;
22632;SDS011;11483;55.828;37.488;2022-12-18T01:32:24;11.17;;;4.97;;
22632;SDS011;11483;55.828;37.488;2022-12-18T01:34:50;15.47;;;4.93;;
22632;SDS011;11483;55.828;37.488;2022-12-18T01:37:15;7.47;;;3.73;;
22632;SDS011;11483;55.828;37.488;2022-12-18T01:39:41;10.77;;;4.37;;
22632;SDS011;11483;55.828;37.488;2022-12-18T01:42:11;9.67;;;4.43;;
22632;SDS011;11483;55.828;37.488;2022-12-18T01:49:50;9.83;;;4.00;;
22632;SDS011;11483;55.828;37.488;2022-12-18T01:52:17;11.73;;;4.50;;
22632;SDS011;11483;55.828;37.488;2022-12-18T01:54:44;10.10;;;4.70;;
22632;SDS011;11483;55.828;37.488;2022-12-18T01:57:11;7.07;;;3.90;;
22632;SDS011;11483;55.828;37.488;2022-12-18T01:59:37;12.30;;;4.90;;
22632;SDS011;11483;55.828;37.488;2022-12-18T02:02:06;10.53;;;4.40;;
22632;SDS011;11483;55.828;37.488;2022-12-18T02:04:33;9.00;;;4.20;;
22632;SDS011;11483;55.828;37.488;2022-12-18T02:09:35;11.97;;;4.57;;
22632;SDS011;11483;55.828;37.488;2022-12-18T02:14:54;14.23;;;4.80;;
22632;SDS011;11483;55.828;37.488;2022-12-18T02:17:28;12.17;;;4.53;;
22632;SDS011;11483;55.828;37.488;2022-12-18T02:27:53;9.97;;;4.00;;
22632;SDS011;11483;55.828;37.488;2022-12-18T02:30:21;14.20;;;4.73;;
22632;SDS011;11483;55.828;37.488;2022-12-18T02:32:51;10.90;;;4.37;;
22632;SDS011;11483;55.828;37.488;2022-12-18T02:35:23;11.60;;;4.83;;
22632;SDS011;11483;55.828;37.488;2022-12-18T02:37:53;8.73;;;4.07;;
22632;SDS011;11483;55.828;37.488;2022-12-18T02:40:20;9.40;;;4.70;;
22632;SDS011;11483;55.828;37.488;2022-12-18T02:42:49;10.80;;;4.60;;
22632;SDS011;11483;55.828;37.488;2022-12-18T02:45:15;8.73;;;4.20;;
22632;SDS011;11483;55.828;37.488;2022-12-18T02:47:42;13.03;;;5.13;;
22632;SDS011;11483;55.828;37.488;2022-12-18T02:50:15;8.83;;;3.70;;
22632;SDS011;11483;55.828;37.488;2022-12-18T02:53:14;5.17;;;3.17;;
22632;SDS011;11483;55.828;37.488;2022-12-18T02:56:05;11.77;;;4.33;;
22632;SDS011;11483;55.828;37.488;2022-12-18T03:01:31;10.33;;;4.60;;
22632;SDS011;11483;55.828;37.488;2022-12-18T03:04:01;6.63;;;3.33;;
22632;SDS011;11483;55.828;37.488;2022-12-18T03:06:37;8.10;;;3.53;;
22632;SDS011;11483;55.828;37.488;2022-12-18T03:09:09;6.70;;;3.27;;
22632;SDS011;11483;55.828;37.488;2022-12-18T03:11:40;8.50;;;3.90;;
22632;SDS011;11483;55.828;37.488;2022-12-18T03:14:29;8.77;;;3.67;;
22632;SDS011;11483;55.828;37.488;2022-12-18T03:16:58;9.97;;;5.47;;
22632;SDS011;11483;55.828;37.488;2022-12-18T03:19:27;7.77;;;3.40;;
22632;SDS011;11483;55.828;37.488;2022-12-18T03:21:57;6.33;;;2.90;;
22632;SDS011;11483;55.828;37.488;2022-12-18T03:24:26;6.33;;;3.00;;
22632;SDS011;11483;55.828;37.488;2022-12-18T03:26:57;9.83;;;4.43;;
22632;SDS011;11483;55.828;37.488;2022-12-18T03:29:31;7.27;;;3.20;;
22632;SDS011;11483;55.828;37.488;2022-12-18T03:32:00;9.63;;;3.63;;
22632;SDS011;11483;55.828;37.488;2022-12-18T03:34:32;11.07;;;3.73;;
22632;SDS011;11483;55.828;37.488;2022-12-18T03:37:00;9.37;;;4.37;;
22632;SDS011;11483;55.828;37.488;2022-12-18T03:39:28;7.67;;;3.03;;
22632;SDS011;11483;55.828;37.488;2022-12-18T03:47:34;5.47;;;2.73;;
22632;SDS011;11483;55.828;37.488;2022-12-18T03:50:19;6.27;;;3.20;;
22632;SDS011;11483;55.828;37.488;2022-12-18T03:56:01;10.70;;;4.10;;
22632;SDS011;11483;55.828;37.488;2022-12-18T03:58:29;8.40;;;4.13;;
22632;SDS011;11483;55.828;37.488;2022-12-18T04:01:00;7.37;;;3.93;;
22632;SDS011;11483;55.828;37.488;2022-12-18T04:03:29;7.93;;;3.23;;
22632;SDS011;11483;55.828;37.488;2022-12-18T04:05:58;5.60;;;3.20;;
22632;SDS011;11483;55.828;37.488;2022-12-18T04:08:25;9.20;;;4.27;;
22632;SDS011;11483;55.828;37.488;2022-12-18T04:10:51;8.67;;;3.63;;
22632;SDS011;11483;55.828;37.488;2022-12-18T04:13:24;8.63;;;4.20;;
22632;SDS011;11483;55.828;37.488;2022-12-18T04:15:53;10.27;;;3.73;;
22632;SDS011;11483;55.828;37.488;2022-12-18T04:18:19;7.23;;;3.30;;
22632;SDS011;11483;55.828;37.488;2022-12-18T04:20:45;7.97;;;3.43;;
22632;SDS011;11483;55.828;37.488;2022-12-18T04:23:14;11.27;;;4.33;;
22632;SDS011;11483;55.828;37.488;2022-12-18T04:25:40;9.03;;;3.87;;
22632;SDS011;11483;55.828;37.488;2022-12-18T04:28:06;11.00;;;5.03;;
22632;SDS011;11483;55.828;37.488;2022-12-18T04:30:32;9.40;;;3.73;;
22632;SDS011;11483;55.828;37.488;2022-12-18T04:32:57;11.53;;;4.47;;
22632;SDS011;11483;55.828;37.488;2022-12-18T04:35:23;14.27;;;3.90;;
22632;SDS011;11483;55.828;37.488;2022-12-18T04:37:49;10.17;;;3.87;;
22632;SDS011;11483;55.828;37.488;2022-12-18T04:40:15;8.43;;;4.03;;
22632;SDS011;11483;55.828;37.488;2022-12-18T04:42:41;8.43;;;3.97;;
22632;SDS011;11483;55.828;37.488;2022-12-18T04:45:07;9.03;;;3.90;;
22632;SDS011;11483;55.828;37.488;2022-12-18T04:47:33;10.77;;;4.03;;
22632;SDS011;11483;55.828;37.488;2022-12-18T04:49:59;9.40;;;4.17;;
22632;SDS011;11483;55.828;37.488;2022-12-18T04:52:25;6.07;;;3.50;;
22632;SDS011;11483;55.828;37.488;2022-12-18T04:54:51;8.73;;;3.43;;
22632;SDS011;11483;55.828;37.488;2022-12-18T04:57:17;9.10;;;4.03;;
22632;SDS011;11483;55.828;37.488;2022-12-18T04:59:43;8.43;;;3.60;;
22632;SDS011;11483;55.828;37.488;2022-12-18T05:02:10;8.30;;;3.93;;
22632;SDS011;11483;55.828;37.488;2022-12-18T05:04:36;8.53;;;3.63;;
22632;SDS011;11483;55.828;37.488;2022-12-18T05:07:01;8.73;;;4.23;;
22632;SDS011;11483;55.828;37.488;2022-12-18T05:09:27;7.13;;;3.70;;
22632;SDS011;11483;55.828;37.488;2022-12-18T05:11:56;11.50;;;4.57;;
22632;SDS011;11483;55.828;37.488;2022-12-18T05:14:22;13.77;;;4.60;;
22632;SDS011;11483;55.828;37.488;2022-12-18T05:16:48;10.97;;;4.13;;
22632;SDS011;11483;55.828;37.488;2022-12-18T05:19:14;13.70;;;4.57;;
22632;SDS011;11483;55.828;37.488;2022-12-18T05:21:39;12.80;;;4.53;;
22632;SDS011;11483;55.828;37.488;2022-12-18T05:24:05;9.93;;;4.07;;
22632;SDS011;11483;55.828;37.488;2022-12-18T05:26:32;6.90;;;3.17;;
22632;SDS011;11483;55.828;37.488;2022-12-18T05:28:57;8.07;;;3.70;;
22632;SDS011;11483;55.828;37.488;2022-12-18T05:31:23;7.50;;;3.63;;
22632;SDS011;11483;55.828;37.488;2022-12-18T05:33:49;8.93;;;4.80;;
22632;SDS011;11483;55.828;37.488;2022-12-18T05:36:15;11.03;;;3.90;;
22632;SDS011;11483;55.828;37.488;2022-12-18T05:38:41;10.07;;;3.53;;
22632;SDS011;11483;55.828;37.488;2022-12-18T05:41:07;9.70;;;4.00;;
22632;SDS011;11483;55.828;37.488;2022-12-18T05:43:34;8.97;;;4.10;;
22632;SDS011;11483;55.828;37.488;2022-12-18T05:46:05;9.50;;;3.77;;
22632;SDS011;11483;55.828;37.488;2022-12-18T05:48:32;8.77;;;4.17;;
22632;SDS011;11483;55.828;37.488;2022-12-18T05:51:03;12.73;;;4.50;;
22632;SDS011;11483;55.828;37.488;2022-12-18T05:53:31;8.43;;;4.00;;
22632;SDS011;11483;55.828;37.488;2022-12-18T05:55:59;10.37;;;3.90;;
22632;SDS011;11483;55.828;37.488;2022-12-18T05:58:26;8.43;;;3.77;;
22632;SDS011;11483;55.828;37.488;2022-12-18T06:00:52;7.77;;;3.57;;
22632;SDS011;11483;55.828;37.488;2022-12-18T06:03:18;9.23;;;3.70;;
22632;SDS011;11483;55.828;37.488;2022-12-18T06:05:44;7.60;;;3.50;;
22632;SDS011;11483;55.828;37.488;2022-12-18T06:08:11;6.77;;;3.77;;
22632;SDS011;11483;55.828;37.488;2022-12-18T06:10:38;10.23;;;4.37;;
22632;SDS011;11483;55.828;37.488;2022-12-18T06:13:05;10.87;;;3.27;;
22632;SDS011;11483;55.828;37.488;2022-12-18T06:15:31;8.77;;;3.73;;
22632;SDS011;11483;55.828;37.488;2022-12-18T06:17:57;6.03;;;2.87;;
22632;SDS011;11483;55.828;37.488;2022-12-18T06:20:23;6.87;;;3.40;;
22632;SDS011;11483;55.828;37.488;2022-12-18T06:22:49;6.73;;;3.17;;
22632;SDS011;11483;55.828;37.488;2022-12-18T06:25:15;9.17;;;3.50;;
22632;SDS011;11483;55.828;37.488;2022-12-18T06:27:41;8.53;;;3.50;;
22632;SDS011;11483;55.828;37.488;2022-12-18T06:30:07;13.97;;;4.33;;
22632;SDS011;11483;55.828;37.488;2022-12-18T06:32:33;9.00;;;4.03;;
22632;SDS011;11483;55.828;37.488;2022-12-18T06:34:59;10.43;;;3.50;;
22632;SDS011;11483;55.828;37.488;2022-12-18T06:37:25;8.80;;;4.30;;
22632;SDS011;11483;55.828;37.488;2022-12-18T06:39:52;7.00;;;3.60;;
22632;SDS011;11483;55.828;37.488;2022-12-18T06:42:18;10.80;;;4.90;;
22632;SDS011;11483;55.828;37.488;2022-12-18T06:44:47;8.07;;;4.13;;
22632;SDS011;11483;55.828;37.488;2022-12-18T06:47:13;7.67;;;4.57;;
22632;SDS011;11483;55.828;37.488;2022-12-18T06:49:38;10.00;;;4.20;;
22632;SDS011;11483;55.828;37.488;2022-12-18T06:52:04;10.20;;;3.37;;
22632;SDS011;11483;55.828;37.488;2022-12-18T06:54:30;7.50;;;4.17;;
22632;SDS011;11483;55.828;37.488;2022-12-18T06:56:56;13.27;;;4.50;;
22632;SDS011;11483;55.828;37.488;2022-12-18T06:59:22;5.17;;;2.17;;
22632;SDS011;11483;55.828;37.488;2022-12-18T07:01:48;7.63;;;4.20;;
22632;SDS011;11483;55.828;37.488;2022-12-18T07:04:14;6.40;;;2.73;;
22632;SDS011;11483;55.828;37.488;2022-12-18T07:06:40;7.93;;;3.07;;
22632;SDS011;11483;55.828;37.488;2022-12-18T07:09:05;8.50;;;3.40;;
22632;SDS011;11483;55.828;37.488;2022-12-18T07:11:34;11.47;;;4.50;;
22632;SDS011;11483;55.828;37.488;2022-12-18T07:14:00;7.80;;;3.27;;
22632;SDS011;11483;55.828;37.488;2022-12-18T07:16:26;8.37;;;3.53;;
22632;SDS011;11483;55.828;37.488;2022-12-18T07:18:55;9.80;;;4.37;;
22632;SDS011;11483;55.828;37.488;2022-12-18T07:21:21;6.10;;;2.90;;
22632;SDS011;11483;55.828;37.488;2022-12-18T07:23:49;9.97;;;3.30;;
22632;SDS011;11483;55.828;37.488;2022-12-18T07:26:15;8.00;;;3.57;;
22632;SDS011;11483;55.828;37.488;2022-12-18T07:28:43;9.97;;;4.13;;
22632;SDS011;11483;55.828;37.488;2022-12-18T07:31:10;8.93;;;3.73;;
22632;SDS011;11483;55.828;37.488;2022-12-18T07:33:38;6.90;;;3.33;;
22632;SDS011;11483;55.828;37.488;2022-12-18T07:36:04;7.13;;;3.00;;
22632;SDS011;11483;55.828;37.488;2022-12-18T07:38:32;9.67;;;4.43;;
22632;SDS011;11483;55.828;37.488;2022-12-18T07:41:02;14.80;;;3.60;;
22632;SDS011;11483;55.828;37.488;2022-12-18T07:43:29;7.90;;;3.97;;
22632;SDS011;11483;55.828;37.488;2022-12-18T07:45:55;7.77;;;3.70;;
22632;SDS011;11483;55.828;37.488;2022-12-18T07:48:21;9.27;;;3.20;;
22632;SDS011;11483;55.828;37.488;2022-12-18T07:50:47;7.10;;;3.53;;
22632;SDS011;11483;55.828;37.488;2022-12-18T07:53:13;7.97;;;3.93;;
22632;SDS011;11483;55.828;37.488;2022-12-18T07:55:39;10.73;;;4.13;;
22632;SDS011;11483;55.828;37.488;2022-12-18T07:58:06;8.40;;;4.17;;
22632;SDS011;11483;55.828;37.488;2022-12-18T08:00:32;6.10;;;3.37;;
22632;SDS011;11483;55.828;37.488;2022-12-18T08:02:59;9.27;;;3.40;;
22632;SDS011;11483;55.828;37.488;2022-12-18T08:05:25;13.13;;;3.80;;
22632;SDS011;11483;55.828;37.488;2022-12-18T08:07:51;8.47;;;4.17;;
22632;SDS011;11483;55.828;37.488;2022-12-18T08:10:17;6.50;;;3.07;;
22632;SDS011;11483;55.828;37.488;2022-12-18T08:12:43;16.70;;;4.17;;
22632;SDS011;11483;55.828;37.488;2022-12-18T08:15:09;9.17;;;4.30;;
22632;SDS011;11483;55.828;37.488;2022-12-18T08:17:35;7.87;;;3.60;;
22632;SDS011;11483;55.828;37.488;2022-12-18T08:20:01;7.53;;;3.53;;
22632;SDS011;11483;55.828;37.488;2022-12-18T08:22:27;6.07;;;2.80;;
22632;SDS011;11483;55.828;37.488;2022-12-18T08:24:53;7.90;;;3.67;;
22632;SDS011;11483;55.828;37.488;2022-12-18T08:27:19;7.90;;;3.90;;
22632;SDS011;11483;55.828;37.488;2022-12-18T08:29:45;7.70;;;3.33;;
22632;SDS011;11483;55.828;37.488;2022-12-18T08:32:10;6.17;;;3.27;;
22632;SDS011;11483;55.828;37.488;2022-12-18T08:34:36;13.10;;;3.60;;
22632;SDS011;11483;55.828;37.488;2022-12-18T08:37:03;10.23;;;3.80;;
22632;SDS011;11483;55.828;37.488;2022-12-18T08:39:29;8.43;;;3.30;;
22632;SDS011;11483;55.828;37.488;2022-12-18T08:41:54;6.97;;;3.63;;
22632;SDS011;11483;55.828;37.488;2022-12-18T08:44:39;6.67;;;4.20;;
22632;SDS011;11483;55.828;37.488;2022-12-18T08:47:05;7.93;;;3.70;;
22632;SDS011;11483;55.828;37.488;2022-12-18T08:49:32;8.37;;;3.23;;
22632;SDS011;11483;55.828;37.488;2022-12-18T08:51:59;7.77;;;3.80;;
22632;SDS011;11483;55.828;37.488;2022-12-18T08:54:25;5.67;;;3.17;;
22632;SDS011;11483;55.828;37.488;2022-12-18T08:56:51;6.77;;;2.70;;
22632;SDS011;11483;55.828;37.488;2022-12-18T08:59:18;6.87;;;3.43;;
22632;SDS011;11483;55.828;37.488;2022-12-18T09:01:45;7.67;;;3.20;;
22632;SDS011;11483;55.828;37.488;2022-12-18T09:04:12;9.23;;;4.10;;
22632;SDS011;11483;55.828;37.488;2022-12-18T09:06:39;9.77;;;3.10;;
22632;SDS011;11483;55.828;37.488;2022-12-18T09:09:05;8.37;;;4.03;;
22632;SDS011;11483;55.828;37.488;2022-12-18T09:11:32;7.90;;;3.00;;
22632;SDS011;11483;55.828;37.488;2022-12-18T09:13:59;8.77;;;3.37;;
22632;SDS011;11483;55.828;37.488;2022-12-18T09:16:26;5.60;;;3.57;;
22632;SDS011;11483;55.828;37.488;2022-12-18T09:18:56;5.50;;;3.03;;
22632;SDS011;11483;55.828;37.488;2022-12-18T09:21:25;6.33;;;2.97;;
22632;SDS011;11483;55.828;37.488;2022-12-18T09:23:58;5.57;;;2.77;;
22632;SDS011;11483;55.828;37.488;2022-12-18T09:26:24;7.77;;;3.60;;
22632;SDS011;11483;55.828;37.488;2022-12-18T09:28:51;7.83;;;2.80;;
22632;SDS011;11483;55.828;37.488;2022-12-18T09:31:18;4.77;;;3.00;;
22632;SDS011;11483;55.828;37.488;2022-12-18T09:33:45;7.07;;;3.77;;
22632;SDS011;11483;55.828;37.488;2022-12-18T09:36:12;4.30;;;2.17;;
22632;SDS011;11483;55.828;37.488;2022-12-18T09:38:39;5.37;;;2.77;;
22632;SDS011;11483;55.828;37.488;2022-12-18T09:41:15;5.60;;;2.83;;
22632;SDS011;11483;55.828;37.488;2022-12-18T09:44:14;7.80;;;3.23;;
22632;SDS011;11483;55.828;37.488;2022-12-18T09:46:49;4.33;;;2.70;;
22632;SDS011;11483;55.828;37.488;2022-12-18T09:49:23;5.93;;;3.00;;
22632;SDS011;11483;55.828;37.488;2022-12-18T09:51:55;3.37;;;2.07;;
22632;SDS011;11483;55.828;37.488;2022-12-18T09:54:38;4.40;;;1.77;;
22632;SDS011;11483;55.828;37.488;2022-12-18T09:57:15;6.47;;;3.13;;
22632;SDS011;11483;55.828;37.488;2022-12-18T09:59:46;6.07;;;2.90;;
22632;SDS011;11483;55.828;37.488;2022-12-18T10:02:34;5.07;;;2.70;;
22632;SDS011;11483;55.828;37.488;2022-12-18T10:13:34;5.60;;;2.83;;
22632;SDS011;11483;55.828;37.488;2022-12-18T10:16:29;5.97;;;3.00;;
22632;SDS011;11483;55.828;37.488;2022-12-18T10:26:41;5.67;;;2.80;;
22632;SDS011;11483;55.828;37.488;2022-12-18T10:29:09;5.67;;;2.43;;
22632;SDS011;11483;55.828;37.488;2022-12-18T10:31:38;5.33;;;2.90;;
22632;SDS011;11483;55.828;37.488;2022-12-18T10:34:07;6.47;;;2.80;;
22632;SDS011;11483;55.828;37.488;2022-12-18T10:36:41;6.13;;;2.80;;
22632;SDS011;11483;55.828;37.488;2022-12-18T10:39:21;7.87;;;2.97;;
22632;SDS011;11483;55.828;37.488;2022-12-18T10:41:48;6.33;;;3.00;;
22632;SDS011;11483;55.828;37.488;2022-12-18T10:44:19;6.03;;;2.30;;
22632;SDS011;11483;55.828;37.488;2022-12-18T10:46:46;4.20;;;2.30;;
22632;SDS011;11483;55.828;37.488;2022-12-18T10:49:25;4.60;;;2.37;;
22632;SDS011;11483;55.828;37.488;2022-12-18T10:52:06;6.60;;;3.20;;
22632;SDS011;11483;55.828;37.488;2022-12-18T10:54:39;4.23;;;2.07;;
22632;SDS011;11483;55.828;37.488;2022-12-18T10:57:15;9.43;;;2.80;;
22632;SDS011;11483;55.828;37.488;2022-12-18T11:00:03;2.33;;;2.00;;
22632;SDS011;11483;55.828;37.488;2022-12-18T11:02:50;5.23;;;2.53;;
22632;SDS011;11483;55.828;37.488;2022-12-18T11:07:59;5.53;;;2.50;;
22632;SDS011;11483;55.828;37.488;2022-12-18T11:10:35;5.77;;;2.73;;
22632;SDS011;11483;55.828;37.488;2022-12-18T11:13:36;5.97;;;2.60;;
22632;SDS011;11483;55.828;37.488;2022-12-18T11:15:56;8.30;;;3.10;;
22632;SDS011;11483;55.828;37.488;2022-12-18T11:20:55;6.77;;;2.83;;
22632;SDS011;11483;55.828;37.488;2022-12-18T11:23:26;5.50;;;2.87;;
22632;SDS011;11483;55.828;37.488;2022-12-18T11:25:57;6.17;;;2.23;;
22632;SDS011;11483;55.828;37.488;2022-12-18T11:31:35;5.93;;;3.07;;
22632;SDS011;11483;55.828;37.488;2022-12-18T11:33:58;8.47;;;2.77;;
22632;SDS011;11483;55.828;37.488;2022-12-18T11:36:29;6.30;;;2.60;;
22632;SDS011;11483;55.828;37.488;2022-12-18T11:39:00;6.20;;;2.63;;
22632;SDS011;11483;55.828;37.488;2022-12-18T11:41:44;4.13;;;2.30;;
22632;SDS011;11483;55.828;37.488;2022-12-18T11:49:50;6.77;;;2.57;;
22632;SDS011;11483;55.828;37.488;2022-12-18T11:52:22;2.77;;;1.53;;
22632;SDS011;11483;55.828;37.488;2022-12-18T11:54:52;4.43;;;2.20;;
22632;SDS011;11483;55.828;37.488;2022-12-18T11:57:27;3.93;;;2.07;;
22632;SDS011;11483;55.828;37.488;2022-12-18T12:00:12;3.60;;;2.03;;
22632;SDS011;11483;55.828;37.488;2022-12-18T12:03:00;4.37;;;1.97;;
22632;SDS011;11483;55.828;37.488;2022-12-18T12:05:51;5.03;;;2.23;;
22632;SDS011;11483;55.828;37.488;2022-12-18T12:08:28;5.43;;;3.00;;
22632;SDS011;11483;55.828;37.488;2022-12-18T12:10:59;9.73;;;2.17;;
22632;SDS011;11483;55.828;37.488;2022-12-18T12:13:41;4.07;;;2.00;;
22632;SDS011;11483;55.828;37.488;2022-12-18T12:16:22;5.27;;;2.47;;
22632;SDS011;11483;55.828;37.488;2022-12-18T12:21:52;5.43;;;1.93;;
22632;SDS011;11483;55.828;37.488;2022-12-18T12:33:22;5.83;;;2.57;;
22632;SDS011;11483;55.828;37.488;2022-12-18T12:41:02;5.27;;;2.17;;
22632;SDS011;11483;55.828;37.488;2022-12-18T12:43:53;9.60;;;2.40;;
22632;SDS011;11483;55.828;37.488;2022-12-18T12:46:22;6.17;;;2.80;;
22632;SDS011;11483;55.828;37.488;2022-12-18T12:48:49;9.17;;;3.17;;
22632;SDS011;11483;55.828;37.488;2022-12-18T12:51:28;5.10;;;2.57;;
22632;SDS011;11483;55.828;37.488;2022-12-18T12:53:59;10.70;;;3.37;;
22632;SDS011;11483;55.828;37.488;2022-12-18T12:56:31;7.33;;;3.13;;
22632;SDS011;11483;55.828;37.488;2022-12-18T12:59:18;9.83;;;3.40;;
22632;SDS011;11483;55.828;37.488;2022-12-18T13:02:22;8.17;;;3.73;;
22632;SDS011;11483;55.828;37.488;2022-12-18T13:05:03;10.03;;;4.53;;
22632;SDS011;11483;55.828;37.488;2022-12-18T13:08:26;14.33;;;5.00;;
22632;SDS011;11483;55.828;37.488;2022-12-18T13:10:34;18.13;;;4.83;;
22632;SDS011;11483;55.828;37.488;2022-12-18T13:13:06;12.40;;;4.63;;
22632;SDS011;11483;55.828;37.488;2022-12-18T13:16:07;10.43;;;4.03;;
22632;SDS011;11483;55.828;37.488;2022-12-18T13:18:35;19.60;;;5.80;;
22632;SDS011;11483;55.828;37.488;2022-12-18T13:23:36;19.17;;;6.67;;
22632;SDS011;11483;55.828;37.488;2022-12-18T13:31:14;16.37;;;5.40;;
22632;SDS011;11483;55.828;37.488;2022-12-18T13:36:49;17.00;;;5.73;;
22632;SDS011;11483;55.828;37.488;2022-12-18T13:41:52;17.93;;;5.83;;
22632;SDS011;11483;55.828;37.488;2022-12-18T13:44:58;13.97;;;5.17;;
22632;SDS011;11483;55.828;37.488;2022-12-18T13:47:36;14.03;;;5.30;;
22632;SDS011;11483;55.828;37.488;2022-12-18T13:50:09;13.30;;;4.33;;
22632;SDS011;11483;55.828;37.488;2022-12-18T13:52:49;18.10;;;5.20;;
22632;SDS011;11483;55.828;37.488;2022-12-18T13:55:18;12.80;;;5.33;;
22632;SDS011;11483;55.828;37.488;2022-12-18T13:57:46;14.87;;;5.37;;
22632;SDS011;11483;55.828;37.488;2022-12-18T14:00:28;13.63;;;4.83;;
22632;SDS011;11483;55.828;37.488;2022-12-18T14:02:55;10.63;;;4.67;;
22632;SDS011;11483;55.828;37.488;2022-12-18T14:05:27;10.77;;;4.43;;
22632;SDS011;11483;55.828;37.488;2022-12-18T14:07:55;15.17;;;5.97;;
22632;SDS011;11483;55.828;37.488;2022-12-18T14:10:25;11.90;;;3.57;;
22632;SDS011;11483;55.828;37.488;2022-12-18T14:12:51;10.03;;;3.53;;
22632;SDS011;11483;55.828;37.488;2022-12-18T14:18:03;8.23;;;3.40;;
22632;SDS011;11483;55.828;37.488;2022-12-18T14:20:56;10.10;;;3.00;;
22632;SDS011;11483;55.828;37.488;2022-12-18T14:23:37;8.23;;;3.43;;
22632;SDS011;11483;55.828;37.488;2022-12-18T14:28:48;9.87;;;4.67;;
22632;SDS011;11483;55.828;37.488;2022-12-18T14:31:20;7.80;;;3.33;;
22632;SDS011;11483;55.828;37.488;2022-12-18T14:33:48;10.03;;;4.10;;
22632;SDS011;11483;55.828;37.488;2022-12-18T14:36:16;7.93;;;3.43;;
22632;SDS011;11483;55.828;37.488;2022-12-18T14:38:43;5.80;;;3.23;;
22632;SDS011;11483;55.828;37.488;2022-12-18T14:41:19;7.67;;;3.07;;
22632;SDS011;11483;55.828;37.488;2022-12-18T14:43:47;6.63;;;3.00;;
22632;SDS011;11483;55.828;37.488;2022-12-18T14:46:33;7.33;;;2.93;;
22632;SDS011;11483;55.828;37.488;2022-12-18T14:51:47;9.20;;;4.00;;
22632;SDS011;11483;55.828;37.488;2022-12-18T14:54:18;5.70;;;3.07;;
22632;SDS011;11483;55.828;37.488;2022-12-18T14:56:46;9.70;;;3.87;;
22632;SDS011;11483;55.828;37.488;2022-12-18T14:59:24;8.90;;;3.90;;
22632;SDS011;11483;55.828;37.488;2022-12-18T15:04:39;9.40;;;3.63;;
22632;SDS011;11483;55.828;37.488;2022-12-18T15:12:42;8.77;;;3.10;;
22632;SDS011;11483;55.828;37.488;2022-12-18T15:18:13;5.83;;;2.53;;
22632;SDS011;11483;55.828;37.488;2022-12-18T15:20:57;9.50;;;3.73;;
22632;SDS011;11483;55.828;37.488;2022-12-18T15:26:06;6.47;;;3.60;;
22632;SDS011;11483;55.828;37.488;2022-12-18T15:31:05;8.27;;;3.77;;
22632;SDS011;11483;55.828;37.488;2022-12-18T15:33:33;8.93;;;3.40;;
22632;SDS011;11483;55.828;37.488;2022-12-18T15:36:05;6.77;;;3.33;;
22632;SDS011;11483;55.828;37.488;2022-12-18T15:38:35;5.37;;;2.97;;
22632;SDS011;11483;55.828;37.488;2022-12-18T15:41:00;7.23;;;3.27;;
22632;SDS011;11483;55.828;37.488;2022-12-18T15:43:27;7.03;;;3.13;;
22632;SDS011;11483;55.828;37.488;2022-12-18T15:46:00;5.73;;;2.87;;
22632;SDS011;11483;55.828;37.488;2022-12-18T15:48:32;8.87;;;4.23;;
22632;SDS011;11483;55.828;37.488;2022-12-18T15:50:59;8.83;;;3.80;;
22632;SDS011;11483;55.828;37.488;2022-12-18T15:53:27;9.47;;;3.87;;
22632;SDS011;11483;55.828;37.488;2022-12-18T15:55:57;6.87;;;3.70;;
22632;SDS011;11483;55.828;37.488;2022-12-18T15:58:41;6.47;;;2.83;;
22632;SDS011;11483;55.828;37.488;2022-12-18T16:01:07;7.93;;;3.77;;
22632;SDS011;11483;55.828;37.488;2022-12-18T16:03:35;4.83;;;2.57;;
22632;SDS011;11483;55.828;37.488;2022-12-18T16:06:01;8.37;;;3.67;;
22632;SDS011;11483;55.828;37.488;2022-12-18T16:08:30;7.20;;;3.37;;
22632;SDS011;11483;55.828;37.488;2022-12-18T16:10:57;7.93;;;3.93;;
22632;SDS011;11483;55.828;37.488;2022-12-18T16:13:23;9.27;;;3.63;;
22632;SDS011;11483;55.828;37.488;2022-12-18T16:15:49;8.33;;;3.53;;
22632;SDS011;11483;55.828;37.488;2022-12-18T16:18:15;5.33;;;3.10;;
22632;SDS011;11483;55.828;37.488;2022-12-18T16:20:41;4.97;;;2.47;;
22632;SDS011;11483;55.828;37.488;2022-12-18T16:23:07;6.63;;;2.97;;
22632;SDS011;11483;55.828;37.488;2022-12-18T16:25:33;5.00;;;2.90;;
22632;SDS011;11483;55.828;37.488;2022-12-18T16:27:59;5.90;;;3.43;;
22632;SDS011;11483;55.828;37.488;2022-12-18T16:30:25;8.20;;;3.33;;
22632;SDS011;11483;55.828;37.488;2022-12-18T16:32:53;9.20;;;3.57;;
22632;SDS011;11483;55.828;37.488;2022-12-18T16:35:20;9.30;;;4.23;;
22632;SDS011;11483;55.828;37.488;2022-12-18T16:37:46;10.73;;;4.57;;
22632;SDS011;11483;55.828;37.488;2022-12-18T16:40:13;6.37;;;3.50;;
22632;SDS011;11483;55.828;37.488;2022-12-18T16:42:41;10.57;;;4.30;;